createdAt,value
2019-01-05T00:01:06.509Z,3
2019-01-05T00:06:08.966Z,2
2019-01-05T00:11:11.451Z,2
2019-01-05T00:16:13.954Z,2
2019-01-05T00:21:19.576Z,3
2019-01-05T00:26:18.786Z,2
2019-01-05T00:31:21.253Z,2
2019-01-05T00:36:23.700Z,1
2019-01-05T00:41:26.150Z,2
2019-01-05T00:46:28.631Z,2
2019-01-05T00:51:31.085Z,3
2019-01-05T00:56:33.585Z,2
2019-01-05T01:01:35.989Z,2
2019-01-05T01:06:38.448Z,2
2019-01-05T01:11:40.903Z,1
2019-01-05T01:16:43.364Z,2
2019-01-05T01:21:45.801Z,1
2019-01-05T01:26:48.263Z,1
2019-01-05T01:31:50.731Z,1
2019-01-05T01:36:53.177Z,1
2019-01-05T01:41:55.637Z,1
2019-01-05T01:46:58.103Z,1
2019-01-05T01:52:00.554Z,2
2019-01-05T01:57:03.010Z,1
2019-01-05T02:02:05.465Z,1
2019-01-05T02:07:07.921Z,1
2019-01-05T02:12:10.390Z,1
2019-01-05T02:17:12.843Z,1
2019-01-05T02:22:15.304Z,0
2019-01-05T02:27:17.745Z,1
2019-01-05T02:32:20.485Z,0
2019-01-05T02:37:22.766Z,0
2019-01-05T02:42:25.113Z,1
2019-01-05T02:47:27.570Z,0
2019-01-05T02:52:30.029Z,0
2019-01-05T02:57:32.493Z,0
2019-01-05T03:02:34.962Z,0
2019-01-05T03:07:37.412Z,1
2019-01-05T03:12:39.865Z,0
2019-01-05T03:17:42.335Z,0
2019-01-05T03:22:44.791Z,0
2019-01-05T03:27:47.247Z,0
2019-01-05T03:32:49.729Z,1
2019-01-05T03:37:52.136Z,0
2019-01-05T03:42:54.613Z,0
2019-01-05T03:47:57.055Z,0
2019-01-05T03:52:59.502Z,1
2019-01-05T03:58:01.995Z,0
2019-01-05T04:03:04.464Z,0
2019-01-05T04:08:06.912Z,0
2019-01-05T04:13:09.345Z,0
2019-01-05T04:18:11.795Z,0
2019-01-05T04:23:14.292Z,0
2019-01-05T04:28:16.711Z,0
2019-01-05T04:33:19.178Z,0
2019-01-05T04:38:21.635Z,0
2019-01-05T04:43:24.067Z,0
2019-01-05T04:48:26.572Z,0
2019-01-05T04:53:28.992Z,0
2019-01-05T04:58:31.452Z,0
2019-01-05T05:03:33.954Z,0
2019-01-05T05:08:36.373Z,0
2019-01-05T05:13:38.858Z,0
2019-01-05T05:18:41.267Z,0
2019-01-05T05:23:43.839Z,0
2019-01-05T05:28:46.240Z,0
2019-01-05T05:33:48.675Z,0
2019-01-05T05:38:51.133Z,0
2019-01-05T05:43:53.557Z,0
2019-01-05T05:48:56.036Z,0
2019-01-05T05:53:58.481Z,0
2019-01-05T05:59:00.938Z,0
2019-01-05T06:04:03.395Z,0
2019-01-05T06:09:05.955Z,0
2019-01-05T06:14:08.310Z,0
2019-01-05T06:19:10.774Z,0
2019-01-05T06:24:13.213Z,0
2019-01-05T06:29:15.691Z,0
2019-01-05T06:34:18.128Z,0
2019-01-05T06:39:20.574Z,0
2019-01-05T06:44:23.023Z,0
2019-01-05T06:49:25.496Z,0
2019-01-05T06:54:27.943Z,0
2019-01-05T06:59:30.418Z,0
2019-01-05T07:04:32.851Z,0
2019-01-05T07:09:35.329Z,0
2019-01-05T07:14:37.820Z,0
2019-01-05T07:19:40.233Z,0
2019-01-05T07:24:42.708Z,0
2019-01-05T07:29:45.234Z,0
2019-01-05T07:34:47.599Z,0
2019-01-05T07:39:50.056Z,0
2019-01-05T07:44:52.509Z,0
2019-01-05T07:49:54.976Z,0
2019-01-05T07:54:57.424Z,1
2019-01-05T07:59:59.883Z,0
2019-01-05T08:05:02.442Z,0
2019-01-05T08:10:04.799Z,1
2019-01-05T08:15:07.271Z,0
2019-01-05T08:20:09.723Z,0
2019-01-05T08:25:12.201Z,0
2019-01-05T08:30:14.648Z,1
2019-01-05T08:35:17.083Z,0
2019-01-05T08:40:19.539Z,2
2019-01-05T08:45:22.001Z,0
2019-01-05T08:50:24.466Z,1
2019-01-05T08:55:26.960Z,1
2019-01-05T09:00:29.382Z,1
2019-01-05T09:05:31.877Z,1
2019-01-05T09:10:34.302Z,1
2019-01-05T09:15:36.759Z,1
2019-01-05T09:20:39.215Z,1
2019-01-05T09:25:42.142Z,1
2019-01-05T09:30:44.141Z,1
2019-01-05T09:35:46.578Z,1
2019-01-05T09:40:49.033Z,1
2019-01-05T09:45:51.509Z,2
2019-01-05T09:50:53.958Z,2
2019-01-05T09:55:56.408Z,2
2019-01-05T10:00:58.860Z,2
2019-01-05T10:06:01.379Z,2
2019-01-05T10:11:03.797Z,3
2019-01-05T10:16:06.245Z,1
2019-01-05T10:21:08.699Z,1
2019-01-05T10:26:11.160Z,2
2019-01-05T10:31:13.602Z,3
2019-01-05T10:36:16.067Z,3
2019-01-05T10:41:18.545Z,2
2019-01-05T10:46:20.979Z,3
2019-01-05T10:51:23.443Z,3
2019-01-05T10:56:25.899Z,3
2019-01-05T11:01:28.343Z,3
2019-01-05T11:06:30.817Z,3
2019-01-05T11:11:33.301Z,3
2019-01-05T11:16:35.717Z,3
2019-01-05T11:21:38.261Z,3
2019-01-05T11:26:40.673Z,3
2019-01-05T11:31:43.110Z,2
2019-01-05T11:36:45.600Z,3
2019-01-05T11:41:48.009Z,3
2019-01-05T11:46:50.486Z,3
2019-01-05T11:51:53.029Z,3
2019-01-05T11:56:55.420Z,6
2019-01-05T12:01:57.854Z,3
2019-01-05T12:07:00.378Z,5
2019-01-05T12:12:02.750Z,3
2019-01-05T12:17:05.197Z,2
2019-01-05T12:22:07.672Z,2
2019-01-05T12:27:10.284Z,2
2019-01-05T12:32:12.610Z,1
2019-01-05T12:37:15.049Z,1
2019-01-05T12:42:17.582Z,2
2019-01-05T12:47:19.944Z,1
2019-01-05T12:52:22.410Z,2
2019-01-05T12:57:24.857Z,2
2019-01-05T13:02:27.360Z,2
2019-01-05T13:07:29.781Z,2
2019-01-05T13:12:32.290Z,2
2019-01-05T13:17:34.686Z,2
2019-01-05T13:22:37.164Z,2
2019-01-05T13:27:39.624Z,4
2019-01-05T13:32:42.062Z,5
2019-01-05T13:37:44.517Z,4
2019-01-05T13:42:46.993Z,5
2019-01-05T13:47:49.534Z,5
2019-01-05T13:52:51.909Z,7
2019-01-05T13:57:54.348Z,6
2019-01-05T14:02:56.867Z,4
2019-01-05T14:07:59.300Z,6
2019-01-05T14:13:01.779Z,5
2019-01-05T14:18:04.316Z,5
2019-01-05T14:23:06.654Z,5
2019-01-05T14:28:09.093Z,7
2019-01-05T14:33:11.559Z,6
2019-01-05T14:38:14.006Z,8
2019-01-05T14:43:16.462Z,6
2019-01-05T14:48:19.209Z,5
2019-01-05T14:53:21.417Z,5
2019-01-05T14:58:23.877Z,10
2019-01-05T15:03:26.304Z,8
2019-01-05T15:08:28.751Z,7
2019-01-05T15:13:31.263Z,9
2019-01-05T15:18:33.708Z,8
2019-01-05T15:23:36.117Z,7
2019-01-05T15:28:38.587Z,8
2019-01-05T15:33:41.042Z,10
2019-01-05T15:38:43.519Z,7
2019-01-05T15:43:45.941Z,12
2019-01-05T15:48:48.405Z,6
2019-01-05T15:53:50.869Z,8
2019-01-05T15:58:53.369Z,8
2019-01-05T16:03:55.789Z,8
2019-01-05T16:08:58.255Z,11
2019-01-05T16:14:00.703Z,7
2019-01-05T16:19:03.187Z,12
2019-01-05T16:24:05.632Z,10
2019-01-05T16:29:08.059Z,11
2019-01-05T16:34:10.555Z,9
2019-01-05T16:39:12.989Z,9
2019-01-05T16:44:15.434Z,13
2019-01-05T16:49:17.897Z,14
2019-01-05T16:54:20.390Z,10
2019-01-05T16:59:22.853Z,10
2019-01-05T17:04:25.353Z,7
2019-01-05T17:09:27.739Z,9
2019-01-05T17:14:30.180Z,6
2019-01-05T17:19:36.410Z,9
2019-01-05T17:24:35.098Z,8
2019-01-05T17:29:37.565Z,10
2019-01-05T17:34:40.020Z,13
2019-01-05T17:39:42.475Z,8
2019-01-05T17:44:44.939Z,14
2019-01-05T17:49:47.407Z,10
2019-01-05T17:54:49.861Z,10
2019-01-05T17:59:52.334Z,9
2019-01-05T18:04:54.763Z,10
2019-01-05T18:09:57.212Z,16
2019-01-05T18:14:59.672Z,10
2019-01-05T18:20:02.155Z,11
2019-01-05T18:25:04.594Z,12
2019-01-05T18:30:07.097Z,14
2019-01-05T18:35:09.511Z,16
2019-01-05T18:40:11.978Z,17
2019-01-05T18:45:14.419Z,14
2019-01-05T18:50:16.883Z,17
2019-01-05T18:55:19.327Z,11
2019-01-05T19:00:22.011Z,10
2019-01-05T19:05:24.264Z,18
2019-01-05T19:10:26.741Z,10
2019-01-05T19:15:29.180Z,12
2019-01-05T19:20:31.628Z,9
2019-01-05T19:25:34.103Z,7
2019-01-05T19:30:36.914Z,4
2019-01-05T19:35:39.000Z,7
2019-01-05T19:40:41.450Z,4
2019-01-05T19:45:43.970Z,4
2019-01-05T19:50:46.409Z,6
2019-01-05T19:55:48.817Z,7
2019-01-05T20:00:51.298Z,9
2019-01-05T20:05:53.729Z,13
2019-01-05T20:10:56.201Z,16
2019-01-05T20:15:58.737Z,15
2019-01-05T20:21:01.182Z,19
2019-01-05T20:26:03.569Z,17
2019-01-05T20:31:06.021Z,11
2019-01-05T20:36:08.470Z,10
2019-01-05T20:41:10.927Z,15
2019-01-05T20:46:13.424Z,9
2019-01-05T20:51:15.879Z,11
2019-01-05T20:56:18.311Z,15
2019-01-05T21:01:20.765Z,17
2019-01-05T21:06:23.234Z,26
2019-01-05T21:11:25.683Z,16
2019-01-05T21:16:28.178Z,11
2019-01-05T21:21:30.590Z,16
2019-01-05T21:26:33.074Z,17
2019-01-05T21:31:35.504Z,22
2019-01-05T21:36:37.998Z,20
2019-01-05T21:41:40.418Z,19
2019-01-05T21:46:42.917Z,18
2019-01-05T21:51:45.333Z,12
2019-01-05T21:56:47.786Z,10
2019-01-05T22:01:50.260Z,14
2019-01-05T22:06:53.127Z,16
2019-01-05T22:11:55.241Z,10
2019-01-05T22:16:57.623Z,17
2019-01-05T22:22:00.087Z,14
2019-01-05T22:27:02.539Z,17
2019-01-05T22:32:05.015Z,12
2019-01-05T22:37:07.473Z,15
2019-01-05T22:42:09.949Z,14
2019-01-05T22:47:12.385Z,15
2019-01-05T22:52:14.824Z,14
2019-01-05T22:57:17.378Z,15
2019-01-05T23:02:19.732Z,16
2019-01-05T23:07:22.456Z,15
2019-01-05T23:12:24.656Z,19
2019-01-05T23:17:27.103Z,13
2019-01-05T23:22:29.558Z,14
2019-01-05T23:27:32.015Z,12
2019-01-05T23:32:34.476Z,3
2019-01-05T23:37:36.981Z,2
2019-01-05T23:42:39.390Z,3
2019-01-05T23:47:43.511Z,2
2019-01-05T23:52:44.313Z,2
2019-01-05T23:57:46.787Z,2
